sensor_id;sensor_type;location;lat;lon;timestamp;pressure;altitude;pressure_sealevel;temperature;humidity
61345;BME280;47216;42.656;23.232;2024-02-16T00:00:39;94418.53;;;2.16;69.68
61345;BME280;47216;42.656;23.232;2024-02-16T00:03:09;94416.84;;;2.23;69.66
61345;BME280;47216;42.656;23.232;2024-02-16T00:05:39;94412.06;;;2.20;69.99
61345;BME280;47216;42.656;23.232;2024-02-16T00:08:06;94416.47;;;2.26;69.87
61345;BME280;47216;42.656;23.232;2024-02-16T00:10:33;94423.22;;;2.27;69.39
61345;BME280;47216;42.656;23.232;2024-02-16T00:13:00;94423.38;;;2.25;69.52
61345;BME280;47216;42.656;23.232;2024-02-16T00:15:27;94421.84;;;2.31;69.74
61345;BME280;47216;42.656;23.232;2024-02-16T00:17:56;94426.72;;;2.41;68.54
61345;BME280;47216;42.656;23.232;2024-02-16T00:20:22;94423.34;;;2.40;68.27
61345;BME280;47216;42.656;23.232;2024-02-16T00:22:49;94429.03;;;2.36;68.98
61345;BME280;47216;42.656;23.232;2024-02-16T00:25:16;94431.19;;;2.32;69.00
61345;BME280;47216;42.656;23.232;2024-02-16T00:27:44;94427.28;;;2.36;68.29
61345;BME280;47216;42.656;23.232;2024-02-16T00:30:12;94422.22;;;2.28;68.65
61345;BME280;47216;42.656;23.232;2024-02-16T00:32:39;94432.97;;;2.31;69.01
61345;BME280;47216;42.656;23.232;2024-02-16T00:35:07;94428.78;;;2.30;68.59
61345;BME280;47216;42.656;23.232;2024-02-16T00:37:34;94436.41;;;2.24;69.01
61345;BME280;47216;42.656;23.232;2024-02-16T00:40:01;94435.81;;;2.22;68.92
61345;BME280;47216;42.656;23.232;2024-02-16T00:42:28;94431.75;;;2.13;69.33
61345;BME280;47216;42.656;23.232;2024-02-16T00:44:56;94437.78;;;2.20;69.32
61345;BME280;47216;42.656;23.232;2024-02-16T00:47:25;94429.78;;;2.15;69.52
61345;BME280;47216;42.656;23.232;2024-02-16T00:49:52;94435.75;;;2.15;69.22
61345;BME280;47216;42.656;23.232;2024-02-16T00:52:22;94433.34;;;2.14;69.43
61345;BME280;47216;42.656;23.232;2024-02-16T00:54:49;94432.38;;;2.15;69.25
61345;BME280;47216;42.656;23.232;2024-02-16T00:57:16;94434.50;;;2.11;69.63
61345;BME280;47216;42.656;23.232;2024-02-16T00:59:42;94431.75;;;2.13;69.16
61345;BME280;47216;42.656;23.232;2024-02-16T01:02:09;94436.47;;;2.09;69.90
61345;BME280;47216;42.656;23.232;2024-02-16T01:04:37;94435.06;;;2.06;69.11
61345;BME280;47216;42.656;23.232;2024-02-16T01:07:03;94426.72;;;2.04;69.31
61345;BME280;47216;42.656;23.232;2024-02-16T01:09:32;94425.69;;;1.99;69.36
61345;BME280;47216;42.656;23.232;2024-02-16T01:11:58;94424.84;;;1.98;69.79
61345;BME280;47216;42.656;23.232;2024-02-16T01:14:25;94424.50;;;2.01;69.40
61345;BME280;47216;42.656;23.232;2024-02-16T01:16:52;94430.38;;;1.95;70.02
61345;BME280;47216;42.656;23.232;2024-02-16T01:19:19;94430.44;;;1.87;70.32
61345;BME280;47216;42.656;23.232;2024-02-16T01:21:45;94427.16;;;1.93;69.79
61345;BME280;47216;42.656;23.232;2024-02-16T01:24:17;94424.22;;;1.96;70.39
61345;BME280;47216;42.656;23.232;2024-02-16T01:26:45;94425.94;;;1.89;69.61
61345;BME280;47216;42.656;23.232;2024-02-16T01:29:12;94421.16;;;1.86;69.81
61345;BME280;47216;42.656;23.232;2024-02-16T01:31:39;94416.00;;;1.86;69.93
61345;BME280;47216;42.656;23.232;2024-02-16T01:34:06;94410.97;;;1.78;70.24
61345;BME280;47216;42.656;23.232;2024-02-16T01:36:32;94401.13;;;1.81;70.14
61345;BME280;47216;42.656;23.232;2024-02-16T01:38:59;94411.06;;;1.70;70.23
61345;BME280;47216;42.656;23.232;2024-02-16T01:41:26;94413.00;;;1.67;70.48
61345;BME280;47216;42.656;23.232;2024-02-16T01:43:55;94412.31;;;1.74;70.39
61345;BME280;47216;42.656;23.232;2024-02-16T01:46:22;94410.06;;;1.71;70.56
61345;BME280;47216;42.656;23.232;2024-02-16T01:48:49;94415.22;;;1.71;70.36
61345;BME280;47216;42.656;23.232;2024-02-16T01:51:17;94408.50;;;1.70;70.06
61345;BME280;47216;42.656;23.232;2024-02-16T01:53:43;94404.16;;;1.70;70.12
61345;BME280;47216;42.656;23.232;2024-02-16T01:56:11;94402.28;;;1.64;70.79
61345;BME280;47216;42.656;23.232;2024-02-16T01:58:38;94398.50;;;1.60;70.55
61345;BME280;47216;42.656;23.232;2024-02-16T02:01:06;94403.00;;;1.58;70.53
61345;BME280;47216;42.656;23.232;2024-02-16T02:03:33;94401.41;;;1.57;70.93
61345;BME280;47216;42.656;23.232;2024-02-16T02:06:00;94402.28;;;1.49;70.46
61345;BME280;47216;42.656;23.232;2024-02-16T02:08:27;94407.28;;;1.51;70.70
61345;BME280;47216;42.656;23.232;2024-02-16T02:10:54;94403.63;;;1.45;71.25
61345;BME280;47216;42.656;23.232;2024-02-16T02:13:21;94415.84;;;1.43;71.45
61345;BME280;47216;42.656;23.232;2024-02-16T02:15:48;94411.00;;;1.48;71.42
61345;BME280;47216;42.656;23.232;2024-02-16T02:18:16;94409.41;;;1.62;71.07
61345;BME280;47216;42.656;23.232;2024-02-16T02:20:43;94403.44;;;1.61;71.02
61345;BME280;47216;42.656;23.232;2024-02-16T02:23:11;94396.00;;;1.66;71.03
61345;BME280;47216;42.656;23.232;2024-02-16T02:25:38;94406.53;;;1.57;70.73
61345;BME280;47216;42.656;23.232;2024-02-16T02:28:05;94408.94;;;1.58;70.59
61345;BME280;47216;42.656;23.232;2024-02-16T02:30:33;94418.06;;;1.46;70.88
61345;BME280;47216;42.656;23.232;2024-02-16T02:33:00;94413.72;;;1.46;70.79
61345;BME280;47216;42.656;23.232;2024-02-16T02:35:27;94413.47;;;1.56;70.72
61345;BME280;47216;42.656;23.232;2024-02-16T02:37:53;94404.50;;;1.52;70.67
61345;BME280;47216;42.656;23.232;2024-02-16T02:40:22;94413.56;;;1.48;70.77
61345;BME280;47216;42.656;23.232;2024-02-16T02:42:48;94410.88;;;1.56;70.58
61345;BME280;47216;42.656;23.232;2024-02-16T02:45:15;94407.00;;;1.60;70.26
61345;BME280;47216;42.656;23.232;2024-02-16T02:47:42;94401.84;;;1.60;70.21
61345;BME280;47216;42.656;23.232;2024-02-16T02:50:09;94409.63;;;1.52;70.53
61345;BME280;47216;42.656;23.232;2024-02-16T02:52:36;94407.28;;;1.51;70.18
61345;BME280;47216;42.656;23.232;2024-02-16T02:55:03;94398.22;;;1.55;70.32
61345;BME280;47216;42.656;23.232;2024-02-16T02:57:32;94404.69;;;1.51;70.24
61345;BME280;47216;42.656;23.232;2024-02-16T03:00:03;94395.84;;;1.53;70.04
61345;BME280;47216;42.656;23.232;2024-02-16T03:02:32;94408.75;;;1.45;70.62
61345;BME280;47216;42.656;23.232;2024-02-16T03:04:58;94411.84;;;1.40;70.44
61345;BME280;47216;42.656;23.232;2024-02-16T03:07:25;94400.44;;;1.43;70.28
61345;BME280;47216;42.656;23.232;2024-02-16T03:09:52;94415.06;;;1.42;70.48
61345;BME280;47216;42.656;23.232;2024-02-16T03:12:19;94412.66;;;1.41;70.72
61345;BME280;47216;42.656;23.232;2024-02-16T03:14:47;94405.22;;;1.46;70.49
61345;BME280;47216;42.656;23.232;2024-02-16T03:17:14;94400.44;;;1.43;70.33
61345;BME280;47216;42.656;23.232;2024-02-16T03:19:41;94413.09;;;1.44;70.13
61345;BME280;47216;42.656;23.232;2024-02-16T03:22:08;94414.63;;;1.39;70.31
61345;BME280;47216;42.656;23.232;2024-02-16T03:24:35;94410.97;;;1.33;70.39
61345;BME280;47216;42.656;23.232;2024-02-16T03:27:01;94409.03;;;1.35;70.37
61345;BME280;47216;42.656;23.232;2024-02-16T03:29:28;94417.25;;;1.31;70.26
61345;BME280;47216;42.656;23.232;2024-02-16T03:31:56;94415.16;;;1.34;70.83
61345;BME280;47216;42.656;23.232;2024-02-16T03:34:23;94417.44;;;1.44;70.28
61345;BME280;47216;42.656;23.232;2024-02-16T03:36:50;94417.09;;;1.47;70.18
61345;BME280;47216;42.656;23.232;2024-02-16T03:39:17;94420.97;;;1.43;69.85
61345;BME280;47216;42.656;23.232;2024-02-16T03:41:45;94417.78;;;1.41;69.51
61345;BME280;47216;42.656;23.232;2024-02-16T03:44:14;94420.44;;;1.33;70.10
61345;BME280;47216;42.656;23.232;2024-02-16T03:46:41;94413.28;;;1.28;70.37
61345;BME280;47216;42.656;23.232;2024-02-16T03:49:10;94413.44;;;1.26;70.25
61345;BME280;47216;42.656;23.232;2024-02-16T03:51:36;94417.53;;;1.21;70.36
61345;BME280;47216;42.656;23.232;2024-02-16T03:54:03;94416.91;;;1.19;70.80
61345;BME280;47216;42.656;23.232;2024-02-16T03:56:30;94412.03;;;1.24;70.17
61345;BME280;47216;42.656;23.232;2024-02-16T03:58:57;94407.25;;;1.21;70.43
61345;BME280;47216;42.656;23.232;2024-02-16T04:01:24;94413.53;;;1.18;70.85
61345;BME280;47216;42.656;23.232;2024-02-16T04:03:51;94402.69;;;1.08;70.95
61345;BME280;47216;42.656;23.232;2024-02-16T04:06:20;94399.06;;;1.02;70.91
61345;BME280;47216;42.656;23.232;2024-02-16T04:08:46;94403.41;;;1.02;70.66
61345;BME280;47216;42.656;23.232;2024-02-16T04:11:14;94402.00;;;0.99;70.96
61345;BME280;47216;42.656;23.232;2024-02-16T04:13:41;94406.94;;;1.01;71.23
61345;BME280;47216;42.656;23.232;2024-02-16T04:16:08;94405.34;;;1.00;71.06
61345;BME280;47216;42.656;23.232;2024-02-16T04:18:35;94400.50;;;1.05;71.01
61345;BME280;47216;42.656;23.232;2024-02-16T04:21:01;94407.66;;;1.10;71.06
61345;BME280;47216;42.656;23.232;2024-02-16T04:23:30;94402.97;;;1.13;71.11
61345;BME280;47216;42.656;23.232;2024-02-16T04:25:56;94406.78;;;1.17;71.07
61345;BME280;47216;42.656;23.232;2024-02-16T04:28:23;94409.44;;;1.09;70.79
61345;BME280;47216;42.656;23.232;2024-02-16T04:30:50;94409.44;;;1.09;70.17
61345;BME280;47216;42.656;23.232;2024-02-16T04:33:17;94408.09;;;0.98;70.71
61345;BME280;47216;42.656;23.232;2024-02-16T04:35:44;94407.66;;;0.95;70.95
61345;BME280;47216;42.656;23.232;2024-02-16T04:38:13;94409.59;;;0.93;71.18
61345;BME280;47216;42.656;23.232;2024-02-16T04:40:42;94414.38;;;0.96;71.06
61345;BME280;47216;42.656;23.232;2024-02-16T04:43:08;94412.88;;;1.01;71.14
61345;BME280;47216;42.656;23.232;2024-02-16T04:45:35;94413.91;;;0.92;71.34
61345;BME280;47216;42.656;23.232;2024-02-16T04:48:03;94413.13;;;0.92;71.12
61345;BME280;47216;42.656;23.232;2024-02-16T04:50:31;94410.56;;;0.92;71.28
61345;BME280;47216;42.656;23.232;2024-02-16T04:52:58;94418.25;;;0.92;71.11
61345;BME280;47216;42.656;23.232;2024-02-16T04:55:25;94412.78;;;0.95;70.96
61345;BME280;47216;42.656;23.232;2024-02-16T04:57:53;94415.66;;;0.77;71.76
61345;BME280;47216;42.656;23.232;2024-02-16T05:00:20;94419.38;;;0.74;71.78
61345;BME280;47216;42.656;23.232;2024-02-16T05:02:47;94420.97;;;0.75;72.06
61345;BME280;47216;42.656;23.232;2024-02-16T05:05:14;94422.97;;;0.65;72.39
61345;BME280;47216;42.656;23.232;2024-02-16T05:07:42;94418.47;;;0.67;72.57
61345;BME280;47216;42.656;23.232;2024-02-16T05:10:09;94429.69;;;0.66;72.79
61345;BME280;47216;42.656;23.232;2024-02-16T05:12:36;94432.88;;;0.68;73.28
61345;BME280;47216;42.656;23.232;2024-02-16T05:15:05;94425.81;;;0.70;72.95
61345;BME280;47216;42.656;23.232;2024-02-16T05:17:32;94426.72;;;0.77;72.68
61345;BME280;47216;42.656;23.232;2024-02-16T05:19:59;94438.56;;;0.78;72.80
61345;BME280;47216;42.656;23.232;2024-02-16T05:22:26;94429.91;;;0.79;72.63
61345;BME280;47216;42.656;23.232;2024-02-16T05:24:52;94446.06;;;0.88;72.03
61345;BME280;47216;42.656;23.232;2024-02-16T05:27:19;94440.19;;;0.79;72.33
61345;BME280;47216;42.656;23.232;2024-02-16T05:29:46;94449.13;;;0.83;72.58
61345;BME280;47216;42.656;23.232;2024-02-16T05:32:15;94449.13;;;0.83;72.42
61345;BME280;47216;42.656;23.232;2024-02-16T05:34:41;94451.00;;;0.90;72.31
61345;BME280;47216;42.656;23.232;2024-02-16T05:37:08;94445.06;;;0.89;72.39
61345;BME280;47216;42.656;23.232;2024-02-16T05:39:36;94457.22;;;0.95;72.14
61345;BME280;47216;42.656;23.232;2024-02-16T05:42:19;94459.28;;;1.00;72.36
61345;BME280;47216;42.656;23.232;2024-02-16T05:44:47;94463.38;;;1.09;71.65
61345;BME280;47216;42.656;23.232;2024-02-16T05:47:15;94464.69;;;1.05;71.46
61345;BME280;47216;42.656;23.232;2024-02-16T05:49:42;94464.31;;;1.08;71.43
61345;BME280;47216;42.656;23.232;2024-02-16T05:52:08;94461.75;;;1.08;71.39
61345;BME280;47216;42.656;23.232;2024-02-16T05:54:44;94462.03;;;1.13;71.31
61345;BME280;47216;42.656;23.232;2024-02-16T05:57:12;94467.94;;;0.99;71.65
61345;BME280;47216;42.656;23.232;2024-02-16T05:59:39;94467.66;;;0.94;71.95
61345;BME280;47216;42.656;23.232;2024-02-16T06:02:07;94469.53;;;1.00;72.08
61345;BME280;47216;42.656;23.232;2024-02-16T06:04:35;94474.97;;;1.05;71.95
61345;BME280;47216;42.656;23.232;2024-02-16T06:07:03;94464.56;;;0.98;72.23
61345;BME280;47216;42.656;23.232;2024-02-16T06:09:31;94466.72;;;1.10;73.34
61345;BME280;47216;42.656;23.232;2024-02-16T06:12:01;94468.69;;;1.22;73.19
61345;BME280;47216;42.656;23.232;2024-02-16T06:14:29;94470.69;;;1.35;72.28
61345;BME280;47216;42.656;23.232;2024-02-16T06:16:56;94468.47;;;1.32;72.05
61345;BME280;47216;42.656;23.232;2024-02-16T06:19:23;94473.50;;;1.25;72.17
61345;BME280;47216;42.656;23.232;2024-02-16T06:21:52;94473.41;;;1.34;71.78
61345;BME280;47216;42.656;23.232;2024-02-16T06:24:20;94470.84;;;1.34;72.06
61345;BME280;47216;42.656;23.232;2024-02-16T06:26:46;94464.53;;;1.21;72.51
61345;BME280;47216;42.656;23.232;2024-02-16T06:29:13;94467.75;;;1.23;72.49
61345;BME280;47216;42.656;23.232;2024-02-16T06:31:40;94463.50;;;1.31;72.67
61345;BME280;47216;42.656;23.232;2024-02-16T06:34:07;94464.41;;;1.38;72.43
61345;BME280;47216;42.656;23.232;2024-02-16T06:36:34;94465.91;;;1.47;72.17
61345;BME280;47216;42.656;23.232;2024-02-16T06:39:03;94472.38;;;1.43;72.38
61345;BME280;47216;42.656;23.232;2024-02-16T06:41:30;94465.75;;;1.49;72.33
61345;BME280;47216;42.656;23.232;2024-02-16T06:43:57;94465.22;;;1.53;72.52
61345;BME280;47216;42.656;23.232;2024-02-16T06:46:24;94468.94;;;1.65;72.24
61345;BME280;47216;42.656;23.232;2024-02-16T06:48:52;94465.56;;;1.80;71.40
61345;BME280;47216;42.656;23.232;2024-02-16T06:51:22;94465.13;;;1.91;71.80
61345;BME280;47216;42.656;23.232;2024-02-16T06:53:49;94466.81;;;1.99;71.18
61345;BME280;47216;42.656;23.232;2024-02-16T06:56:18;94472.56;;;2.16;71.56
61345;BME280;47216;42.656;23.232;2024-02-16T06:58:45;94473.06;;;2.26;70.81
61345;BME280;47216;42.656;23.232;2024-02-16T07:01:12;94466.91;;;2.42;70.93
61345;BME280;47216;42.656;23.232;2024-02-16T07:03:39;94465.41;;;2.47;70.00
61345;BME280;47216;42.656;23.232;2024-02-16T07:06:06;94461.22;;;2.68;69.61
61345;BME280;47216;42.656;23.232;2024-02-16T07:08:35;94468.22;;;2.95;69.70
61345;BME280;47216;42.656;23.232;2024-02-16T07:11:03;94470.06;;;3.02;69.44
61345;BME280;47216;42.656;23.232;2024-02-16T07:13:33;94474.28;;;3.09;68.91
61345;BME280;47216;42.656;23.232;2024-02-16T07:16:00;94469.88;;;3.25;69.00
61345;BME280;47216;42.656;23.232;2024-02-16T07:18:27;94465.84;;;3.44;68.59
61345;BME280;47216;42.656;23.232;2024-02-16T07:20:54;94467.22;;;3.68;67.39
61345;BME280;47216;42.656;23.232;2024-02-16T07:23:21;94462.16;;;3.88;66.91
61345;BME280;47216;42.656;23.232;2024-02-16T07:25:48;94459.84;;;4.06;67.33
61345;BME280;47216;42.656;23.232;2024-02-16T07:28:15;94456.34;;;4.20;66.32
61345;BME280;47216;42.656;23.232;2024-02-16T07:30:43;94463.38;;;4.40;66.53
61345;BME280;47216;42.656;23.232;2024-02-16T07:33:11;94458.03;;;4.55;64.90
61345;BME280;47216;42.656;23.232;2024-02-16T07:35:38;94462.47;;;4.68;64.73
61345;BME280;47216;42.656;23.232;2024-02-16T07:38:05;94462.88;;;4.84;64.68
61345;BME280;47216;42.656;23.232;2024-02-16T07:40:32;94464.31;;;5.00;64.46
61345;BME280;47216;42.656;23.232;2024-02-16T07:42:59;94462.13;;;5.17;63.15
61345;BME280;47216;42.656;23.232;2024-02-16T07:45:28;94460.56;;;5.23;63.18
61345;BME280;47216;42.656;23.232;2024-02-16T07:47:57;94467.31;;;5.37;62.94
61345;BME280;47216;42.656;23.232;2024-02-16T07:50:24;94458.53;;;5.45;62.53
61345;BME280;47216;42.656;23.232;2024-02-16T07:52:51;94458.53;;;5.52;62.48
61345;BME280;47216;42.656;23.232;2024-02-16T07:55:17;94464.13;;;5.62;60.90
61345;BME280;47216;42.656;23.232;2024-02-16T07:57:46;94470.88;;;5.69;60.73
61345;BME280;47216;42.656;23.232;2024-02-16T08:00:13;94470.84;;;5.76;60.62
61345;BME280;47216;42.656;23.232;2024-02-16T08:02:41;94470.25;;;5.87;60.32
61345;BME280;47216;42.656;23.232;2024-02-16T08:05:10;94472.41;;;5.90;59.57
61345;BME280;47216;42.656;23.232;2024-02-16T08:07:38;94471.22;;;6.00;59.72
61345;BME280;47216;42.656;23.232;2024-02-16T08:10:05;94478.19;;;6.06;59.96
61345;BME280;47216;42.656;23.232;2024-02-16T08:12:32;94470.00;;;6.16;60.27
61345;BME280;47216;42.656;23.232;2024-02-16T08:15:01;94470.97;;;6.21;60.13
61345;BME280;47216;42.656;23.232;2024-02-16T08:17:29;94475.50;;;6.32;59.18
61345;BME280;47216;42.656;23.232;2024-02-16T08:19:56;94472.09;;;6.39;58.73
61345;BME280;47216;42.656;23.232;2024-02-16T08:22:24;94463.28;;;6.46;59.11
61345;BME280;47216;42.656;23.232;2024-02-16T08:24:51;94468.44;;;6.53;58.79
61345;BME280;47216;42.656;23.232;2024-02-16T08:27:18;94473.81;;;6.58;58.47
61345;BME280;47216;42.656;23.232;2024-02-16T08:29:45;94474.16;;;6.68;58.56
61345;BME280;47216;42.656;23.232;2024-02-16T08:32:12;94469.75;;;6.76;58.47
61345;BME280;47216;42.656;23.232;2024-02-16T08:34:38;94472.06;;;6.84;57.99
61345;BME280;47216;42.656;23.232;2024-02-16T08:37:05;94476.00;;;6.93;57.22
61345;BME280;47216;42.656;23.232;2024-02-16T08:39:34;94474.19;;;7.00;57.87
61345;BME280;47216;42.656;23.232;2024-02-16T08:42:01;94470.19;;;6.98;57.65
61345;BME280;47216;42.656;23.232;2024-02-16T08:44:28;94469.63;;;6.96;57.68
61345;BME280;47216;42.656;23.232;2024-02-16T08:46:55;94470.34;;;7.09;57.31
61345;BME280;47216;42.656;23.232;2024-02-16T08:49:22;94472.31;;;7.14;56.71
61345;BME280;47216;42.656;23.232;2024-02-16T08:51:48;94474.28;;;7.19;56.62
61345;BME280;47216;42.656;23.232;2024-02-16T08:54:15;94482.25;;;7.17;56.20
61345;BME280;47216;42.656;23.232;2024-02-16T08:56:45;94476.59;;;7.27;56.95
61345;BME280;47216;42.656;23.232;2024-02-16T08:59:15;94478.75;;;7.30;57.22
61345;BME280;47216;42.656;23.232;2024-02-16T09:01:43;94474.31;;;7.37;57.55
61345;BME280;47216;42.656;23.232;2024-02-16T09:04:10;94479.84;;;7.47;56.27
61345;BME280;47216;42.656;23.232;2024-02-16T09:06:37;94485.56;;;7.56;55.66
61345;BME280;47216;42.656;23.232;2024-02-16T09:09:04;94481.16;;;7.56;56.24
61345;BME280;47216;42.656;23.232;2024-02-16T09:11:32;94482.72;;;7.57;54.72
61345;BME280;47216;42.656;23.232;2024-02-16T09:14:00;94483.31;;;7.60;55.03
61345;BME280;47216;42.656;23.232;2024-02-16T09:16:27;94482.91;;;7.63;54.62
61345;BME280;47216;42.656;23.232;2024-02-16T09:18:54;94488.66;;;7.65;54.94
61345;BME280;47216;42.656;23.232;2024-02-16T09:21:21;94481.41;;;7.73;54.63
61345;BME280;47216;42.656;23.232;2024-02-16T09:23:49;94488.53;;;7.78;54.25
61345;BME280;47216;42.656;23.232;2024-02-16T09:26:16;94490.63;;;7.69;54.19
61345;BME280;47216;42.656;23.232;2024-02-16T09:28:43;94487.31;;;7.81;54.39
61345;BME280;47216;42.656;23.232;2024-02-16T09:31:14;94490.75;;;7.81;52.95
61345;BME280;47216;42.656;23.232;2024-02-16T09:33:40;94486.47;;;7.87;53.28
61345;BME280;47216;42.656;23.232;2024-02-16T09:36:08;94482.06;;;7.87;54.17
61345;BME280;47216;42.656;23.232;2024-02-16T09:38:34;94476.31;;;8.04;53.84
61345;BME280;47216;42.656;23.232;2024-02-16T09:41:01;94478.72;;;8.05;53.35
61345;BME280;47216;42.656;23.232;2024-02-16T09:43:29;94477.22;;;8.16;54.01
61345;BME280;47216;42.656;23.232;2024-02-16T09:45:57;94483.13;;;8.23;53.41
61345;BME280;47216;42.656;23.232;2024-02-16T09:48:27;94488.66;;;8.27;53.04
61345;BME280;47216;42.656;23.232;2024-02-16T09:50:55;94476.56;;;8.20;52.61
61345;BME280;47216;42.656;23.232;2024-02-16T09:53:25;94483.25;;;8.28;53.08
61345;BME280;47216;42.656;23.232;2024-02-16T09:55:52;94475.59;;;8.33;52.33
61345;BME280;47216;42.656;23.232;2024-02-16T09:58:20;94463.56;;;8.39;52.69
61345;BME280;47216;42.656;23.232;2024-02-16T10:00:51;94470.94;;;8.42;51.86
61345;BME280;47216;42.656;23.232;2024-02-16T10:03:22;94464.31;;;8.46;53.13
61345;BME280;47216;42.656;23.232;2024-02-16T10:05:51;94463.94;;;8.43;51.93
61345;BME280;47216;42.656;23.232;2024-02-16T10:08:18;94465.00;;;8.53;51.70
61345;BME280;47216;42.656;23.232;2024-02-16T10:10:45;94458.59;;;8.56;52.31
61345;BME280;47216;42.656;23.232;2024-02-16T10:13:15;94452.94;;;8.59;52.68
61345;BME280;47216;42.656;23.232;2024-02-16T10:15:42;94452.41;;;8.69;52.67
61345;BME280;47216;42.656;23.232;2024-02-16T10:18:10;94447.47;;;8.79;51.41
61345;BME280;47216;42.656;23.232;2024-02-16T10:20:38;94448.84;;;8.81;51.32
61345;BME280;47216;42.656;23.232;2024-02-16T10:23:08;94451.34;;;8.88;51.46
61345;BME280;47216;42.656;23.232;2024-02-16T10:25:37;94443.66;;;8.81;50.92
61345;BME280;47216;42.656;23.232;2024-02-16T10:28:05;94447.41;;;8.86;51.46
61345;BME280;47216;42.656;23.232;2024-02-16T10:30:35;94434.53;;;8.91;50.83
61345;BME280;47216;42.656;23.232;2024-02-16T10:33:04;94430.00;;;8.98;51.75
61345;BME280;47216;42.656;23.232;2024-02-16T10:35:32;94436.81;;;8.99;51.68
61345;BME280;47216;42.656;23.232;2024-02-16T10:38:01;94440.13;;;9.06;51.28
61345;BME280;47216;42.656;23.232;2024-02-16T10:40:32;94438.19;;;9.13;50.42
61345;BME280;47216;42.656;23.232;2024-02-16T10:43:03;94437.28;;;9.19;49.97
61345;BME280;47216;42.656;23.232;2024-02-16T10:45:33;94429.16;;;9.28;49.79
61345;BME280;47216;42.656;23.232;2024-02-16T10:48:00;94431.97;;;9.26;50.58
61345;BME280;47216;42.656;23.232;2024-02-16T10:50:27;94425.78;;;9.27;50.91
61345;BME280;47216;42.656;23.232;2024-02-16T10:52:56;94419.81;;;9.38;50.67
61345;BME280;47216;42.656;23.232;2024-02-16T10:55:25;94415.03;;;9.47;49.38
61345;BME280;47216;42.656;23.232;2024-02-16T10:57:55;94422.50;;;9.55;50.23
61345;BME280;47216;42.656;23.232;2024-02-16T11:00:24;94416.75;;;9.53;49.48
61345;BME280;47216;42.656;23.232;2024-02-16T11:02:52;94408.03;;;9.59;50.42
61345;BME280;47216;42.656;23.232;2024-02-16T11:05:31;94409.13;;;9.63;49.85
61345;BME280;47216;42.656;23.232;2024-02-16T11:08:02;94410.38;;;9.73;50.34
61345;BME280;47216;42.656;23.232;2024-02-16T11:10:29;94415.16;;;9.76;49.93
61345;BME280;47216;42.656;23.232;2024-02-16T11:13:00;94408.47;;;9.80;48.64
61345;BME280;47216;42.656;23.232;2024-02-16T11:15:28;94406.88;;;9.79;48.58
61345;BME280;47216;42.656;23.232;2024-02-16T11:17:56;94408.00;;;9.83;49.61
61345;BME280;47216;42.656;23.232;2024-02-16T11:20:24;94405.75;;;9.75;49.19
61345;BME280;47216;42.656;23.232;2024-02-16T11:22:52;94402.44;;;9.91;48.77
61345;BME280;47216;42.656;23.232;2024-02-16T11:25:30;94402.13;;;9.87;48.35
61345;BME280;47216;42.656;23.232;2024-02-16T11:27:59;94390.66;;;9.88;48.50
61345;BME280;47216;42.656;23.232;2024-02-16T11:30:28;94388.97;;;9.94;48.44
61345;BME280;47216;42.656;23.232;2024-02-16T11:32:55;94382.28;;;9.98;48.87
61345;BME280;47216;42.656;23.232;2024-02-16T11:35:21;94381.69;;;10.08;48.42
61345;BME280;47216;42.656;23.232;2024-02-16T11:37:48;94385.84;;;10.21;48.78
61345;BME280;47216;42.656;23.232;2024-02-16T11:40:17;94375.53;;;10.26;48.07
61345;BME280;47216;42.656;23.232;2024-02-16T11:42:44;94375.41;;;10.33;47.89
61345;BME280;47216;42.656;23.232;2024-02-16T11:45:13;94373.25;;;10.29;47.83
61345;BME280;47216;42.656;23.232;2024-02-16T11:47:41;94374.88;;;10.30;48.31
61345;BME280;47216;42.656;23.232;2024-02-16T11:50:09;94377.22;;;10.32;48.92
61345;BME280;47216;42.656;23.232;2024-02-16T11:52:38;94365.97;;;10.43;48.59
61345;BME280;47216;42.656;23.232;2024-02-16T11:55:08;94365.59;;;10.51;48.53
61345;BME280;47216;42.656;23.232;2024-02-16T11:57:36;94374.44;;;10.50;48.01
61345;BME280;47216;42.656;23.232;2024-02-16T12:00:04;94364.19;;;10.61;47.67
61345;BME280;47216;42.656;23.232;2024-02-16T12:02:35;94367.72;;;10.55;47.42
61345;BME280;47216;42.656;23.232;2024-02-16T12:05:03;94365.44;;;10.58;46.83
61345;BME280;47216;42.656;23.232;2024-02-16T12:07:30;94364.84;;;10.68;46.93
61345;BME280;47216;42.656;23.232;2024-02-16T12:09:58;94362.16;;;10.80;47.36
61345;BME280;47216;42.656;23.232;2024-02-16T12:12:26;94357.50;;;10.82;47.21
61345;BME280;47216;42.656;23.232;2024-02-16T12:14:55;94359.50;;;10.91;46.77
61345;BME280;47216;42.656;23.232;2024-02-16T12:17:22;94360.84;;;10.94;47.42
61345;BME280;47216;42.656;23.232;2024-02-16T12:19:52;94352.06;;;11.00;47.32
61345;BME280;47216;42.656;23.232;2024-02-16T12:22:19;94357.66;;;11.09;46.32
61345;BME280;47216;42.656;23.232;2024-02-16T12:24:47;94356.66;;;11.10;46.66
61345;BME280;47216;42.656;23.232;2024-02-16T12:27:14;94351.34;;;11.05;46.65
61345;BME280;47216;42.656;23.232;2024-02-16T12:29:41;94347.78;;;11.11;46.06
61345;BME280;47216;42.656;23.232;2024-02-16T12:32:08;94343.19;;;11.18;46.04
61345;BME280;47216;42.656;23.232;2024-02-16T12:34:35;94339.56;;;11.19;46.26
61345;BME280;47216;42.656;23.232;2024-02-16T12:37:05;94346.97;;;11.27;45.82
61345;BME280;47216;42.656;23.232;2024-02-16T12:39:33;94345.41;;;11.26;46.25
61345;BME280;47216;42.656;23.232;2024-02-16T12:42:00;94344.91;;;11.29;45.85
61345;BME280;47216;42.656;23.232;2024-02-16T12:44:27;94340.25;;;11.31;45.85
61345;BME280;47216;42.656;23.232;2024-02-16T12:46:54;94338.25;;;11.39;46.14
61345;BME280;47216;42.656;23.232;2024-02-16T12:49:21;94333.19;;;11.49;46.54
61345;BME280;47216;42.656;23.232;2024-02-16T12:51:48;94329.69;;;11.60;46.67
61345;BME280;47216;42.656;23.232;2024-02-16T12:54:16;94331.03;;;11.63;46.03
61345;BME280;47216;42.656;23.232;2024-02-16T12:56:44;94337.94;;;11.52;45.85
61345;BME280;47216;42.656;23.232;2024-02-16T12:59:11;94338.53;;;11.59;45.67
61345;BME280;47216;42.656;23.232;2024-02-16T13:01:38;94337.53;;;11.60;45.77